• Join FlightAware (Why Join?)
  • Login
  • US Flag 
08:23PM EST


 

Airport Tracker/Info


-or-


 

Live Flight TrackerFlight Track Log ✈ EJA951 ✈ 08-Nov-2013 ✈ KPHL - KSJC

Flight Track Log - Related Links

Times and Time Zones

All times are in EST time to prevent confusion due to time zone crossing. See the EJA951 flight status page for this flight to view local times or setup timezone preferences in your user account.

Time Position Orientation Groundspeed Altitude Reporting Facility
EST Latitude Longitude Course Direction KTS MPH feet Rate Location/Type
09:12AM 39.8667 -75.2667 270° West 172 198 800  Level Philadelphia TRACON
09:12AM 39.8667 -75.2833 270° West 171 197 1,400 3,300 Climbing Philadelphia TRACON
09:13AM 39.8333 -75.3667 243° Southwest 226 260 4,800 3,120 Climbing Philadelphia TRACON
09:14AM 39.8833 -75.4167 323° Northwest 249 287 7,700 2,580 Climbing Philadelphia TRACON
09:15AM 39.9500 -75.4500 339° North 274 315 10,000 1,860 Climbing Philadelphia TRACON
09:16AM 40.0011 -75.4725 341° North 337 388 11,000 1,680 Climbing New York Center
09:17AM 40.0769 -75.5047 342° North 331 381 13,000 1,200 Climbing New York Center
09:18AM 40.1836 -75.5472 343° North 350 403 13,500 840 Climbing New York Center
09:19AM 40.2600 -75.6178 325° Northwest 374 430 14,700 1,320 Climbing New York Center
09:20AM 40.3286 -75.7206 311° West 374 430 16,200 1,200 Climbing New York Center
09:21AM 40.4050 -75.8353 311° West 379 436 17,100 1,140 Climbing New York Center
09:22AM 40.4536 -75.9614 297° West 391 450 18,500 2,400 Climbing New York Center
09:23AM 40.4708 -76.0911 280° West 376 433 21,900 2,700 Climbing New York Center
09:24AM 40.4900 -76.2181 281° West 365 420 24,000 1,800 Climbing New York Center
09:25AM 40.5064 -76.3178 282° West 360 414 25,600 1,740 Climbing New York Center
09:26AM 40.5322 -76.4753 282° West 360 414 27,500 1,500 Climbing New York Center
09:27AM 40.5478 -76.5833 281° West 366 421 28,600 1,380 Climbing New York Center
09:28AM 40.5789 -76.7497 284° West 379 436 30,300 1,560 Climbing New York Center
09:29AM 40.6292 -76.8719 298° West 384 442 31,800 1,140 Climbing New York Center
09:30AM 40.6806 -77.0022 298° West 393 452 32,700 1,320 Climbing New York Center
09:31AM 40.7322 -77.1303 298° West 400 460 34,400 1,260 Climbing New York Center
09:32AM 40.7475 -77.2686 278° West 384 442 35,300 780 Climbing New York Center
09:33AM 40.7533 -77.3925 274° West 379 436 36,100 960 Climbing New York Center
09:35AM 40.7658 -77.7331 273° West 386 444 38,600 1,020 Climbing Cleveland Center
09:36AM 40.7714 -77.8992 273° West 382 440 39,800 660 Climbing Cleveland Center
09:37AM 40.7756 -78.0356 272° West 377 434 40,000 60 Climbing Cleveland Center
09:38AM 40.7806 -78.1781 273° West 382 440 40,000  Level Cleveland Center
09:39AM 40.7853 -78.3261 272° West 396 456 40,000  Level Cleveland Center
09:40AM 40.7894 -78.4783 272° West 409 471 40,000  Level Cleveland Center
09:41AM 40.7933 -78.6344 272° West 420 483 40,000  Level Cleveland Center
09:42AM 40.7972 -78.7911 272° West 425 489 40,000  Level Cleveland Center
09:43AM 40.8011 -78.9750 272° West 429 494 40,000  Level Cleveland Center
09:44AM 40.8042 -79.1322 272° West 430 495 40,000  Level Cleveland Center
09:45AM 40.8078 -79.2892 272° West 431 496 40,000  Level Cleveland Center
09:46AM 40.8106 -79.4461 271° West 432 497 40,000  Level Cleveland Center
09:47AM 40.8122 -79.6044 271° West 435 501 40,000  Level Cleveland Center
09:49AM 40.8147 -79.7922 271° West 433 498 40,000  Level Cleveland Center
09:50AM 40.8167 -79.9489 271° West 432 497 40,000  Level Cleveland Center
09:51AM 40.8189 -80.1150 271° West 432 497 40,000 120 Level Cleveland Center
09:52AM 40.8211 -80.2711 271° West 428 493 40,300 300 Climbing Cleveland Center
09:53AM 40.8219 -80.4236 270° West 426 490 40,700 480 Climbing Cleveland Center
09:54AM 40.8231 -80.6044 271° West 422 486 41,300 480 Climbing Cleveland Center
09:55AM 40.8239 -80.7481 270° West 413 475 41,800 480 Climbing Cleveland Center
09:56AM 40.8250 -80.8969 271° West 409 471 42,300 480 Climbing Cleveland Center
09:57AM 40.8233 -81.0600 269° West 409 471 42,800 300 Climbing Cleveland Center
09:58AM 40.8236 -81.2092 270° West 402 463 43,000 60 Climbing Cleveland Center
09:59AM 40.8242 -81.3597 270° West 403 464 43,000  Level Cleveland Center
10:00AM 40.8239 -81.5117 270° West 408 470 43,000  Level Cleveland Center
10:01AM 40.8239 -81.6653 270° West 411 473 43,000  Level Cleveland Center
10:02AM 40.8233 -81.8183 270° West 411 473 43,000  Level Cleveland Center
10:03AM 40.8219 -81.9989 269° West 414 476 43,000  Level Cleveland Center
10:04AM 40.8208 -82.1533 270° West 415 478 43,000  Level Cleveland Center
10:05AM 40.8206 -82.2578 270° West 416 479 43,000  Level Indianapolis Center
10:06AM 40.8189 -82.4114 269° West 415 478 43,000  Level Indianapolis Center
10:07AM 40.8169 -82.5656 269° West 415 478 43,000  Level Indianapolis Center
10:08AM 40.8150 -82.7192 269° West 416 479 43,000  Level Indianapolis Center
10:09AM 40.8139 -82.8744 270° West 418 481 43,000  Level Indianapolis Center
10:10AM 40.8114 -83.0281 269° West 416 479 43,000  Level Indianapolis Center
10:11AM 40.8086 -83.2058 269° West 412 474 43,000  Level Indianapolis Center
10:12AM 40.8150 -83.3597 273° West 414 476 43,000  Level Indianapolis Center
10:13AM 40.8233 -83.5119 274° West 414 476 43,000  Level Indianapolis Center
10:14AM 40.8300 -83.6508 274° West 415 478 43,000  Level Indianapolis Center
10:15AM 40.8400 -83.8331 274° West 417 480 43,000  Level Indianapolis Center
10:16AM 40.8483 -83.9853 274° West 418 481 43,000  Level Indianapolis Center
10:17AM 40.8547 -84.1381 273° West 419 482 43,000  Level Indianapolis Center
10:18AM 40.8617 -84.2914 273° West 421 484 43,000  Level Indianapolis Center
10:19AM 40.8686 -84.4444 273° West 419 482 43,000  Level Indianapolis Center
10:20AM 40.8769 -84.6267 274° West 417 480 43,000  Level Indianapolis Center
10:21AM 40.8831 -84.7806 273° West 421 484 43,000  Level Indianapolis Center
10:22AM 40.8886 -84.9222 273° West 421 484 43,000  Level Indianapolis Center
10:23AM 40.8944 -85.0750 273° West 421 484 43,000  Level Indianapolis Center
10:24AM 40.9011 -85.2594 273° West 421 484 43,000  Level Indianapolis Center
10:25AM 40.9069 -85.4144 273° West 424 488 43,000  Level Indianapolis Center
10:26AM 40.9125 -85.5681 273° West 423 487 43,000  Level Indianapolis Center
10:28AM 40.9175 -85.7217 273° West 421 484 43,000  Level Indianapolis Center
10:29AM 40.9231 -85.8744 273° West 420 483 43,000  Level Indianapolis Center
10:30AM 40.9289 -86.0572 272° West 418 481 43,000  Level Indianapolis Center
10:31AM 40.9331 -86.2092 272° West 417 480 43,000  Level Indianapolis Center
10:32AM 40.9375 -86.3619 272° West 419 482 43,000  Level Indianapolis Center
10:33AM 40.9411 -86.5133 272° West 417 480 43,000  Level Indianapolis Center
10:34AM 40.9450 -86.6656 272° West 417 480 43,000  Level Indianapolis Center
10:35AM 40.9497 -86.8478 272° West 417 480 43,000  Level Indianapolis Center
10:36AM 40.9525 -86.9997 271° West 418 481 43,000  Level Indianapolis Center
10:37AM 40.9567 -87.1528 272° West 418 481 43,000  Level Indianapolis Center
10:38AM 40.9606 -87.3522 272° West 420 483 43,000  Level Chicago Center
10:39AM 40.9633 -87.5078 271° West 422 486 43,000  Level Chicago Center
10:40AM 40.9672 -87.6933 272° West 419 482 43,000  Level Chicago Center
10:41AM 40.9689 -87.8461 271° West 416 479 43,000  Level Chicago Center
10:42AM 40.9719 -87.9992 272° West 415 478 43,000  Level Chicago Center
10:43AM 40.9744 -88.1519 271° West 415 478 43,000  Level Chicago Center
10:44AM 40.9764 -88.3053 271° West 414 476 43,000  Level Chicago Center
10:45AM 40.9778 -88.4575 271° West 414 476 43,000  Level Chicago Center
10:46AM 40.9786 -88.6408 270° West 416 479 43,000  Level Chicago Center
10:47AM 40.9800 -88.7911 271° West 411 473 43,000  Level Chicago Center
10:49AM 40.9814 -88.9422 271° West 410 472 43,000  Level Chicago Center
10:50AM 40.9822 -89.0939 270° West 411 473 43,000  Level Chicago Center
10:51AM 40.9828 -89.2444 270° West 409 471 43,000  Level Chicago Center
10:52AM 40.9822 -89.3939 270° West 407 468 43,000  Level Chicago Center
10:53AM 40.9808 -89.5733 269° West 406 467 43,000  Level Chicago Center
10:54AM 40.9789 -89.7231 269° West 407 468 43,000  Level Chicago Center
10:55AM 40.9786 -89.8714 270° West 404 465 43,000  Level Chicago Center
10:56AM 40.9781 -90.0219 270° West 406 467 43,000  Level Chicago Center
10:57AM 40.9781 -90.1722 270° West 407 468 43,000  Level Chicago Center
10:58AM 40.9808 -90.3258 271° West 411 473 43,000  Level Chicago Center
10:59AM 40.9792 -90.5089 269° West 417 480 43,000  Level Chicago Center
11:00AM 40.9781 -90.6567 269° West 412 474 43,000 240 Level Chicago Center
11:01AM 40.9744 -90.8019 268° West 405 466 43,500 480 Climbing Chicago Center
11:02AM 40.9731 -90.9469 269° West 400 460 44,000 480 Climbing Chicago Center
11:03AM 40.9711 -91.0908 269° West 398 458 44,500 480 Climbing Chicago Center
11:04AM 40.9650 -91.2639 267° West 394 453 45,000 240 Climbing Chicago Center
11:05AM 40.9631 -91.4056 269° West 394 453 45,000  Level Chicago Center
11:06AM 40.9608 -91.5542 269° West 404 465 45,000  Level Chicago Center
11:07AM 40.9589 -91.7017 269° West 407 468 45,000  Level Chicago Center
11:08AM 40.9569 -91.8511 269° West 410 472 45,000  Level Chicago Center
11:09AM 40.9531 -92.0314 268° West 413 475 45,000  Level Chicago Center
11:10AM 40.9506 -92.1806 269° West 413 475 45,000  Level Chicago Center
11:11AM 40.9472 -92.3325 268° West 417 480 45,000  Level Chicago Center
11:12AM 40.9436 -92.4817 268° West 414 476 45,000  Level Chicago Center
11:13AM 40.9400 -92.6344 268° West 421 484 45,000  Level Chicago Center
11:14AM 40.9347 -92.8131 268° West 413 475 45,000  Level Chicago Center
11:15AM 40.9308 -92.9614 268° West 410 472 45,000  Level Chicago Center
11:16AM 40.9267 -93.1100 268° West 411 473 45,000  Level Chicago Center
11:17AM 40.9217 -93.2606 268° West 408 470 45,000  Level Minneapolis Center
11:18AM 40.9172 -93.4128 268° West 415 478 45,000  Level Minneapolis Center
11:19AM 40.9111 -93.5647 267° West 418 481 45,000  Level Minneapolis Center
11:20AM 40.9067 -93.7169 268° West 419 482 45,000  Level Minneapolis Center
11:21AM 40.9006 -93.8700 267° West 420 483 45,000  Level Minneapolis Center
11:22AM 40.8928 -94.0544 267° West 421 484 45,000  Level Minneapolis Center
11:24AM 40.8861 -94.2081 267° West 422 486 45,000  Level Minneapolis Center
11:25AM 40.8806 -94.3606 267° West 421 484 45,000  Level Minneapolis Center
11:26AM 40.8744 -94.5111 267° West 417 480 45,000  Level Minneapolis Center
11:27AM 40.8664 -94.6878 267° West 422 486 45,000  Level Minneapolis Center
11:28AM 40.8592 -94.8428 267° West 422 486 45,000  Level Minneapolis Center
11:29AM 40.8531 -94.9967 267° West 420 483 45,000  Level Minneapolis Center
11:30AM 40.8458 -95.1508 267° West 420 483 45,000  Level Minneapolis Center
11:31AM 40.8375 -95.3058 266° West 421 484 45,000  Level Minneapolis Center
11:32AM 40.8283 -95.4925 266° West 422 486 45,000  Level Minneapolis Center
11:33AM 40.8200 -95.6472 266° West 421 484 45,000  Level Minneapolis Center
11:34AM 40.8122 -95.8047 266° West 426 490 45,000  Level Minneapolis Center
11:35AM 40.8031 -95.9581 266° West 421 484 45,000  Level Minneapolis Center
11:36AM 40.7950 -96.1136 266° West 421 484 45,000  Level Minneapolis Center
11:37AM 40.7864 -96.2700 266° West 424 488 45,000  Level Minneapolis Center
11:38AM 40.7758 -96.4244 265° West 420 483 45,000  Level Minneapolis Center
11:39AM 40.7675 -96.5767 266° West 419 482 45,000  Level Minneapolis Center
11:40AM 40.7561 -96.7622 265° West 421 484 45,000  Level Minneapolis Center
11:42AM 40.7364 -97.0744 265° West 425 489 45,000  Level Minneapolis Center
11:43AM 40.7264 -97.2289 265° West 424 488 45,000  Level Minneapolis Center
11:44AM 40.7153 -97.3847 265° West 424 488 45,000  Level Minneapolis Center
11:45AM 40.7042 -97.5406 265° West 425 489 45,000  Level Minneapolis Center
11:46AM 40.6936 -97.6950 265° West 425 489 45,000  Level Minneapolis Center
11:47AM 40.6797 -97.8797 264° West 422 486 45,000  Level Minneapolis Center
11:48AM 40.6694 -98.0347 265° West 424 488 45,000  Level Minneapolis Center
11:49AM 40.6578 -98.1911 264° West 426 490 45,000  Level Minneapolis Center
11:50AM 40.6453 -98.3489 264° West 430 495 45,000  Level Minneapolis Center
11:51AM 40.6333 -98.5067 264° West 431 496 45,000  Level Minneapolis Center
11:52AM 40.6214 -98.6647 264° West 431 496 45,000  Level Minneapolis Center
11:53AM 40.6081 -98.8233 264° West 432 497 45,000  Level Minneapolis Center
11:54AM 40.5961 -98.9822 264° West 433 498 45,000  Level Minneapolis Center
11:56AM 40.5831 -99.1406 264° West 433 498 45,000  Level Minneapolis Center
11:56AM 40.5725 -99.2661 264° West 432 497 45,000  Level Denver Center
11:57AM 40.5583 -99.4203 263° West 426 490 45,000  Level Denver Center
11:58AM 40.5453 -99.5750 264° West 423 487 45,000  Level Denver Center
11:59AM 40.5319 -99.7306 264° West 426 490 45,000  Level Denver Center
12:00PM 40.5150 -99.9158 263° West 427 491 45,000  Level Denver Center
12:01PM 40.5011 -100.0658 263° West 431 496 45,000  Level Denver Center
12:02PM 40.4875 -100.2183 263° West 436 502 45,000  Level Denver Center
12:03PM 40.4708 -100.3958 263° West 437 503 45,000  Level Denver Center
12:05PM 40.4553 -100.5492 262° West 439 505 45,000  Level Denver Center
12:06PM 40.4389 -100.7281 263° West 439 505 45,000  Level Denver Center
12:07PM 40.4231 -100.8811 262° West 441 507 45,000  Level Denver Center
12:08PM 40.4058 -101.0603 263° West 441 507 45,000  Level Denver Center
12:09PM 40.3908 -101.2119 263° West 439 505 45,000  Level Denver Center
12:10PM 40.3761 -101.3633 263° West 437 503 45,000  Level Denver Center
12:11PM 40.3564 -101.5386 262° West 434 499 45,000  Level Denver Center
12:12PM 40.3414 -101.6906 263° West 437 503 45,000  Level Denver Center
12:13PM 40.3219 -101.8642 262° West 432 497 45,000  Level Denver Center
12:14PM 40.3067 -102.0111 262° West 426 490 45,000  Level Denver Center
12:15PM 40.2869 -102.1831 262° West 427 491 45,000  Level Denver Center
12:16PM 40.2711 -102.3292 262° West 425 489 45,000  Level Denver Center
12:17PM 40.2508 -102.5022 261° West 429 494 45,000  Level Denver Center
12:18PM 40.2350 -102.6508 262° West 431 496 45,000  Level Denver Center
12:19PM 40.2158 -102.8203 262° West 436 502 45,000  Level Denver Center
12:20PM 40.1972 -102.9758 261° West 436 502 45,000  Level Denver Center
12:21PM 40.1786 -103.1328 261° West 439 505 45,000  Level Denver Center
12:22PM 40.1594 -103.2878 261° West 435 501 45,000  Level Denver Center
12:23PM 40.1369 -103.4750 261° West 435 501 45,000  Level Denver Center
12:24PM 40.1172 -103.6292 261° West 433 498 45,000  Level Denver Center
12:25PM 40.0997 -103.7869 262° West 444 511 45,000  Level Denver Center
12:26PM 40.0794 -103.9394 260° West 432 497 45,000  Level Denver Center
12:27PM 40.0614 -104.0908 261° West 425 489 45,000  Level Denver Center
12:28PM 40.0417 -104.2414 260° West 424 488 45,000  Level Denver Center
12:29PM 40.0181 -104.4225 260° West 423 487 45,000  Level Denver Center
12:30PM 39.9989 -104.5736 261° West 427 491 45,000  Level Denver Center
12:31PM 39.9786 -104.7253 260° West 429 494 45,000  Level Denver Center
12:32PM 39.9575 -104.8753 260° West 424 488 45,000  Level Denver Center
12:33PM 39.9331 -105.0519 260° West 419 482 45,000  Level Denver Center
12:35PM 39.9131 -105.1961 260° West 408 470 45,000  Level Denver Center
12:36PM 39.8925 -105.3419 260° West 411 473 45,000  Level Denver Center
12:37PM 39.8728 -105.4881 260° West 413 475 45,000  Level Denver Center
12:38PM 39.8517 -105.6339 259° West 413 475 45,000  Level Denver Center
12:39PM 39.8297 -105.7808 259° West 417 480 45,000  Level Denver Center
12:40PM 39.8067 -105.9583 260° West 417 480 45,000  Level Denver Center
12:41PM 39.7825 -106.1139 259° West 434 499 45,000  Level Denver Center
12:42PM 39.7586 -106.2728 259° West 447 514 45,000 -240 Level Denver Center
12:43PM 39.7353 -106.4350 259° West 456 525 44,600 -540 Descending Denver Center
12:44PM 39.7100 -106.6111 259° West 465 535 43,900 -720 Descending Denver Center
12:45PM 39.6831 -106.7858 259° West 457 526 43,200 -480 Descending Denver Center
12:46PM 39.6583 -106.9383 258° West 452 520 43,000 -120 Descending Denver Center
12:47PM 39.6319 -107.1172 259° West 453 521 43,000  Level Denver Center
12:48PM 39.6075 -107.2697 258° West 452 520 43,000  Level Denver Center
12:49PM 39.5794 -107.4478 259° West 450 518 43,000  Level Denver Center
12:50PM 39.5550 -107.6019 258° West 454 522 43,000  Level Denver Center
12:51PM 39.5269 -107.7825 259° West 458 527 43,000  Level Denver Center
12:52PM 39.5008 -107.9375 258° West 459 528 43,000  Level Denver Center
12:53PM 39.4753 -108.0928 258° West 459 528 43,000  Level Denver Center
12:54PM 39.4461 -108.2714 258° West 454 522 43,000  Level Denver Center
12:55PM 39.4197 -108.4258 258° West 456 525 43,000  Level Denver Center
12:56PM 39.3894 -108.6092 258° West 462 532 43,000  Level Denver Center
12:57PM 39.3628 -108.7647 258° West 459 528 43,000  Level Denver Center
12:58PM 39.3308 -108.9467 257° West 460 529 43,000  Level Denver Center
12:59PM 39.3044 -109.1025 258° West 461 531 43,000  Level Denver Center
01:00PM 39.2778 -109.2572 257° West 459 528 43,000  Level Denver Center
01:01PM 39.2456 -109.4394 257° West 467 537 43,000  Level Denver Center
01:02PM 39.2325 -109.5183 258° West 466 536 43,000  Level Salt Lake Center
01:03PM 39.1992 -109.6994 257° West 465 535 43,000  Level Salt Lake Center
01:04PM 39.1719 -109.8561 257° West 466 536 43,000  Level Salt Lake Center
01:05PM 39.1447 -110.0119 257° West 465 535 43,000  Level Salt Lake Center
01:06PM 39.1111 -110.1936 257° West 467 537 43,000  Level Salt Lake Center
01:08PM 39.0642 -110.4533 257° West 468 539 43,000  Level Denver Center
01:08PM 39.0481 -110.5306 255° West 468 539 43,000  Level Salt Lake Center
01:09PM 39.0167 -110.6831 255° West 463 533 43,000  Level Salt Lake Center
01:10PM 38.9833 -110.8642 257° West 465 535 43,000  Level Salt Lake Center
01:11PM 38.9583 -111.0044 257° West 467 537 43,000  Level Salt Lake Center
01:12PM 38.9214 -111.1981 256° West 468 539 43,000  Level Salt Lake Center
01:13PM 38.8897 -111.3581 256° West 466 536 43,000  Level Salt Lake Center
01:14PM 38.8653 -111.5197 259° West 464 534 43,000  Level Salt Lake Center
01:15PM 38.8453 -111.6817 261° West 462 532 43,000  Level Salt Lake Center
01:16PM 38.8244 -111.8433 261° West 461 531 43,000  Level Salt Lake Center
01:17PM 38.8028 -112.0061 260° West 464 534 43,000  Level Salt Lake Center
01:18PM 38.7769 -112.2017 260° West 465 535 43,000  Level Salt Lake Center
01:19PM 38.7561 -112.3656 261° West 467 537 43,000  Level Salt Lake Center
01:20PM 38.7344 -112.5294 260° West 469 540 43,000  Level Salt Lake Center
01:22PM 38.7108 -112.6928 260° West 469 540 43,000  Level Salt Lake Center
01:23PM 38.6892 -112.8583 261° West 473 544 43,000  Level Salt Lake Center
01:24PM 38.6658 -113.0186 259° West 466 536 43,000  Level Salt Lake Center
01:25PM 38.6381 -113.2206 260° West 475 547 43,000  Level Salt Lake Center
01:26PM 38.6142 -113.3856 260° West 478 550 43,000  Level Salt Lake Center
01:27PM 38.5908 -113.5497 260° West 473 544 43,000  Level Salt Lake Center
01:28PM 38.5675 -113.7150 260° West 475 547 43,000  Level Salt Lake Center
01:29PM 38.5431 -113.8806 259° West 476 548 43,000  Level Salt Lake Center
01:30PM 38.5175 -114.0494 259° West 482 555 43,000  Level Salt Lake Center
01:31PM 38.4875 -114.2500 259° West 482 555 43,000  Level Salt Lake Center
01:32PM 38.4614 -114.4175 259° West 483 556 43,000  Level Salt Lake Center
01:33PM 38.4358 -114.5842 259° West 482 555 43,000  Level Salt Lake Center
01:34PM 38.4106 -114.7525 259° West 484 557 43,000  Level Salt Lake Center
01:35PM 38.3836 -114.9200 258° West 485 558 43,000  Level Salt Lake Center
01:36PM 38.3569 -115.0897 259° West 488 562 43,000  Level Salt Lake Center
01:37PM 38.3239 -115.2931 258° West 490 564 43,000  Level Salt Lake Center
01:38PM 38.2972 -115.4578 258° West 489 563 43,000  Level Salt Lake Center
01:39PM 38.2700 -115.6275 259° West 489 563 43,000  Level Salt Lake Center
01:40PM 38.2419 -115.7972 258° West 490 564 43,000  Level Salt Lake Center
01:41PM 38.2133 -115.9672 258° West 491 565 43,000  Level Salt Lake Center
01:42PM 38.1789 -116.1711 258° West 492 566 43,000  Level Salt Lake Center
01:43PM 38.1503 -116.3414 258° West 492 566 43,000  Level Salt Lake Center
01:44PM 38.1336 -116.4419 258° West 492 566 43,000  Level Oakland Center
01:45PM 38.1042 -116.6108 258° West 490 564 43,000  Level Oakland Center
01:46PM 38.0750 -116.7800 258° West 490 564 43,000  Level Oakland Center
01:47PM 38.0444 -116.9494 257° West 489 563 43,000  Level Oakland Center
01:48PM 37.9997 -117.1172 251° West 492 566 43,000  Level Oakland Center
01:49PM 37.9419 -117.2806 246° West 496 571 43,000 -360 Level Oakland Center
01:50PM 37.8850 -117.4403 246° West 494 568 42,300 -1,140 Descending Oakland Center
01:51PM 37.8275 -117.5992 245° Southwest 495 570 40,700 -1,620 Descending Oakland Center
01:52PM 37.7617 -117.7789 245° Southwest 472 543 39,000 -1,620 Descending Oakland Center
01:53PM 37.7025 -117.9397 245° Southwest 495 570 37,400 -1,500 Descending Oakland Center
01:54PM 37.6431 -118.1042 246° West 511 588 35,900 -1,500 Descending Oakland Center
01:55PM 37.5808 -118.2706 245° Southwest 522 601 34,400 -1,500 Descending Oakland Center
01:56PM 37.5186 -118.4400 245° Southwest 531 611 32,900 -1,560 Descending Oakland Center
01:57PM 37.4553 -118.6106 245° Southwest 537 618 31,300 -1,440 Descending Oakland Center
01:58PM 37.3936 -118.7789 245° Southwest 532 612 30,000 -660 Descending Oakland Center
01:59PM 37.3711 -118.9719 262° West 533 613 30,000 -300 Level Oakland Center
02:00PM 37.3517 -119.1567 263° West 534 615 29,500 -1,260 Descending Oakland Center
02:01PM 37.3333 -119.3364 263° West 524 603 27,500 -2,160 Descending Oakland Center
02:02PM 37.3128 -119.5436 263° West 500 575 25,100 -1,740 Descending Oakland Center
02:03PM 37.2956 -119.7092 263° West 485 558 24,000 -1,320 Descending Oakland Center
02:04PM 37.2772 -119.8764 262° West 484 557 22,500 -1,740 Descending Oakland Center
02:05PM 37.2592 -120.0383 262° West 475 547 20,500 -1,980 Descending Oakland Center
02:06PM 37.2425 -120.1931 262° West 453 521 18,500 -1,920 Descending Oakland Center
02:07PM 37.2244 -120.3436 261° West 438 504 16,600 -2,100 Descending Oakland Center
02:08PM 37.2000 -120.4833 258° West 458 527 14,500 -2,220 Descending Northern Cal TRACON
02:09PM 37.1667 -120.6167 253° West 387 445 12,500 -1,800 Descending Northern Cal TRACON
02:10PM 37.1500 -120.7333 260° West 370 426 11,000 -1,260 Descending Northern Cal TRACON
02:11PM 37.1167 -120.8667 253° West 381 438 10,000 -540 Descending Northern Cal TRACON
02:12PM 37.0833 -121.0000 253° West 385 443 10,000  Level Northern Cal TRACON
02:13PM 37.0667 -121.1333 261° West 391 450 10,000  Level Northern Cal TRACON
02:14PM 37.0500 -121.2667 261° West 388 447 10,000 -120 Level Northern Cal TRACON
02:15PM 37.0667 -121.3833 280° West 303 349 9,800 -900 Descending Northern Cal TRACON
02:16PM 37.1000 -121.4667 297° West 271 312 8,200 -1,500 Descending Northern Cal TRACON
02:17PM 37.1167 -121.5500 284° West 272 313 6,800 -1,500 Descending Northern Cal TRACON
02:18PM 37.1500 -121.6333 297° West 271 312 5,200 -1,140 Descending Northern Cal TRACON
02:19PM 37.1833 -121.7333 293° West 259 298 4,600 -960 Descending Northern Cal TRACON
02:20PM 37.2333 -121.7833 321° Northwest 257 296 3,300 -1,260 Descending Northern Cal TRACON
02:21PM 37.2833 -121.8333 321° Northwest 215 247 2,100 -1,020 Descending Northern Cal TRACON
02:22PM 37.3167 -121.8667 322° Northwest 131 151 1,300 -660 Descending Northern Cal TRACON
02:23PM 37.3197 -121.8831 283° West 170 196 1,100 -600 Descending Oakland Center
02:24PM 37.3469 -121.9144 317° Northwest 145 167 400 -720 Descending Oakland Center
02:26PM 37.3500 -121.9167 North  Level FlightAware Approximate
02:33PM 37.3627 -121.9291 North  Level Estimated